createdAt,value
2022-12-15T00:00:41.625Z,43.70
2022-12-15T00:07:21.225Z,48.80
2022-12-15T00:10:35.675Z,52.17
2022-12-15T00:13:57.298Z,48.92
2022-12-15T00:17:11.339Z,43.90
2022-12-15T00:20:30.012Z,47.95
2022-12-15T00:23:45.847Z,48.45
2022-12-15T00:27:03.427Z,49.83
2022-12-15T00:30:17.732Z,47.72
2022-12-15T00:33:32.313Z,44.88
2022-12-15T00:36:46.758Z,47.28
2022-12-15T00:39:43.231Z,47.78
2022-12-15T00:48:46.690Z,47.97
2022-12-15T00:51:12.250Z,46.92
2022-12-15T00:54:50.062Z,45.47
2022-12-15T01:02:12.888Z,46.28
2022-12-15T01:05:34.689Z,50.00
2022-12-15T01:08:57.982Z,47.03
2022-12-15T01:12:15.040Z,45.38
2022-12-15T01:15:36.470Z,49.58
2022-12-15T01:18:57.877Z,48.45
2022-12-15T01:25:02.457Z,51.25
2022-12-15T01:28:05.240Z,48.15
2022-12-15T01:30:59.043Z,44.47
2022-12-15T01:34:04.293Z,46.30
2022-12-15T01:36:58.414Z,46.05
2022-12-15T01:40:16.395Z,48.00
2022-12-15T01:43:13.639Z,48.47
2022-12-15T01:49:35.994Z,44.83
2022-12-15T01:52:47.178Z,48.15
2022-12-15T01:55:45.874Z,49.33
2022-12-15T01:59:02.428Z,48.75
2022-12-15T02:01:57.515Z,48.60
2022-12-15T02:05:01.122Z,50.72
2022-12-15T02:07:55.469Z,60.03
2022-12-15T02:14:54.900Z,50.10
2022-12-15T02:18:18.024Z,50.92
2022-12-15T02:21:38.390Z,53.50
2022-12-15T02:28:38.758Z,54.78
2022-12-15T02:32:19.622Z,55.03
2022-12-15T02:35:55.389Z,54.13
2022-12-15T02:38:58.475Z,49.05
2022-12-15T02:41:55.353Z,49.83
2022-12-15T02:45:23.353Z,48.83
2022-12-15T02:49:12.756Z,50.38
2022-12-15T02:52:26.739Z,50.20
2022-12-15T02:55:57.393Z,48.30
2022-12-15T02:59:25.121Z,45.10
2022-12-15T03:02:17.064Z,51.53
2022-12-15T03:05:12.098Z,56.85
2022-12-15T03:08:10.915Z,48.22
2022-12-15T03:11:12.031Z,50.25
2022-12-15T03:14:14.268Z,56.58
2022-12-15T03:17:21.300Z,48.90
2022-12-15T03:20:28.058Z,47.90
2022-12-15T03:26:54.382Z,51.45
2022-12-15T03:29:48.326Z,49.28
2022-12-15T03:32:41.608Z,50.60
2022-12-15T03:35:47.619Z,58.28
2022-12-15T03:38:41.062Z,52.05
2022-12-15T03:44:55.716Z,55.58
2022-12-15T03:48:00.379Z,59.30
2022-12-15T03:51:11.538Z,64.47
2022-12-15T03:54:14.531Z,60.53
2022-12-15T03:57:08.111Z,48.37
2022-12-15T04:03:04.589Z,62.95
2022-12-15T04:05:52.950Z,62.10
2022-12-15T04:08:41.119Z,60.95
2022-12-15T04:11:35.437Z,64.38
2022-12-15T04:14:23.575Z,58.08
2022-12-15T04:17:13.226Z,67.72
2022-12-15T04:20:13.112Z,68.55
2022-12-15T04:23:05.518Z,62.40
2022-12-15T04:26:14.894Z,65.03
2022-12-15T04:29:28.700Z,59.15
2022-12-15T04:32:42.452Z,62.35
2022-12-15T04:35:55.827Z,63.30
2022-12-15T04:39:08.009Z,43.65
2022-12-15T04:42:22.792Z,66.18
2022-12-15T04:45:39.473Z,54.13
2022-12-15T04:48:46.405Z,55.75
2022-12-15T04:52:05.191Z,53.45
2022-12-15T04:55:14.861Z,53.60
2022-12-15T04:58:35.918Z,66.35
2022-12-15T05:01:42.641Z,54.88
2022-12-15T05:04:49.663Z,66.55
2022-12-15T05:08:00.848Z,52.35
2022-12-15T05:11:12.765Z,53.10
2022-12-15T05:14:25.402Z,52.67
2022-12-15T05:17:41.663Z,55.58
2022-12-15T05:21:07.687Z,58.35
2022-12-15T05:24:18.258Z,55.25
2022-12-15T05:27:30.339Z,58.83
2022-12-15T05:30:37.477Z,55.92
2022-12-15T05:33:30.469Z,51.75
2022-12-15T05:36:31.021Z,56.65
2022-12-15T05:39:32.990Z,54.67
2022-12-15T05:42:21.852Z,52.80
2022-12-15T05:45:29.373Z,47.08
2022-12-15T05:48:20.891Z,54.78
2022-12-15T05:51:32.084Z,50.13
2022-12-15T05:54:36.390Z,49.83
2022-12-15T05:57:35.606Z,52.33
2022-12-15T06:03:45.063Z,54.08
2022-12-15T06:07:14.037Z,51.97
2022-12-15T06:10:20.519Z,57.70
2022-12-15T06:13:35.316Z,49.92
2022-12-15T06:19:34.035Z,55.25
2022-12-15T06:22:28.170Z,50.42
2022-12-15T06:25:29.273Z,53.47
2022-12-15T06:28:46.870Z,68.38
2022-12-15T06:35:01.827Z,77.15
2022-12-15T06:38:09.356Z,68.18
2022-12-15T06:41:43.581Z,75.30
2022-12-15T06:44:31.760Z,75.70
2022-12-15T06:47:24.715Z,73.60
2022-12-15T06:50:12.806Z,75.35
2022-12-15T06:53:06.228Z,78.13
2022-12-15T06:55:59.976Z,87.75
2022-12-15T07:04:22.937Z,72.57
2022-12-15T07:07:14.494Z,75.78
2022-12-15T07:10:04.105Z,73.30
2022-12-15T07:15:46.984Z,73.68
2022-12-15T07:18:35.981Z,87.80
2022-12-15T07:21:26.879Z,78.30
2022-12-15T07:24:15.974Z,90.97
2022-12-15T07:27:06.863Z,83.07
2022-12-15T07:29:55.194Z,78.15
2022-12-15T07:32:50.625Z,85.10
2022-12-15T07:35:48.851Z,77.40
2022-12-15T07:38:37.355Z,81.20
2022-12-15T07:41:28.188Z,78.45
2022-12-15T07:44:19.193Z,78.78
2022-12-15T07:47:13.000Z,72.15
2022-12-15T07:50:08.633Z,73.78
2022-12-15T07:54:04.484Z,75.05
2022-12-15T07:56:26.346Z,74.43
2022-12-15T07:59:17.331Z,74.28
2022-12-15T08:02:11.296Z,75.70
2022-12-15T08:05:05.365Z,71.82
2022-12-15T08:08:09.623Z,69.35
2022-12-15T08:11:12.599Z,58.55
2022-12-15T08:14:03.168Z,52.58
2022-12-15T08:16:52.886Z,58.47
2022-12-15T08:19:43.759Z,63.67
2022-12-15T08:22:32.227Z,61.78
2022-12-15T08:25:37.267Z,63.10
2022-12-15T08:28:25.495Z,71.15
2022-12-15T08:31:19.149Z,75.43
2022-12-15T08:37:03.741Z,72.85
2022-12-15T08:40:04.725Z,72.05
2022-12-15T08:42:53.373Z,79.25
2022-12-15T08:45:49.427Z,77.20
2022-12-15T08:48:41.455Z,82.47
2022-12-15T08:51:32.282Z,80.53
2022-12-15T08:54:25.420Z,83.88
2022-12-15T08:57:16.786Z,61.08
2022-12-15T09:00:06.208Z,83.28
2022-12-15T09:03:17.672Z,77.95
2022-12-15T09:06:11.856Z,81.10
2022-12-15T09:09:32.795Z,84.78
2022-12-15T09:12:24.490Z,93.68
2022-12-15T09:15:16.861Z,83.20
2022-12-15T09:18:08.968Z,86.88
2022-12-15T09:21:06.401Z,86.53
2022-12-15T09:24:03.173Z,82.80
2022-12-15T09:27:10.519Z,85.55
2022-12-15T09:30:20.837Z,82.80
2022-12-15T09:33:12.211Z,90.18
2022-12-15T09:36:21.448Z,89.68
2022-12-15T09:39:30.450Z,89.65
2022-12-15T09:47:03.989Z,83.57
2022-12-15T09:50:32.726Z,84.05
2022-12-15T09:54:15.294Z,73.53
2022-12-15T09:57:48.732Z,88.47
2022-12-15T10:02:13.196Z,86.80
2022-12-15T10:09:37.413Z,87.78
2022-12-15T10:12:41.969Z,94.43
2022-12-15T10:20:00.065Z,92.05
2022-12-15T10:23:17.980Z,81.38
2022-12-15T10:26:27.549Z,82.00
2022-12-15T10:30:01.876Z,87.93
2022-12-15T10:34:46.864Z,78.47
2022-12-15T10:36:23.751Z,83.97
2022-12-15T10:39:28.805Z,83.43
2022-12-15T10:42:31.286Z,90.70
2022-12-15T10:49:17.880Z,84.30
2022-12-15T10:52:14.513Z,86.50
2022-12-15T10:55:41.425Z,79.05
2022-12-15T10:58:39.800Z,78.10
2022-12-15T11:01:46.265Z,74.60
2022-12-15T11:04:58.113Z,77.60
2022-12-15T11:08:12.313Z,82.78
2022-12-15T11:11:25.959Z,88.70
2022-12-15T11:14:38.320Z,93.50
2022-12-15T11:17:39.837Z,94.22
2022-12-15T11:26:41.003Z,81.80
2022-12-15T11:30:29.559Z,82.13
2022-12-15T11:33:19.864Z,81.03
2022-12-15T11:36:28.843Z,80.25
2022-12-15T11:39:30.884Z,88.57
2022-12-15T11:42:52.974Z,83.28
2022-12-15T11:46:13.858Z,79.05
2022-12-15T11:49:29.431Z,75.82
2022-12-15T11:53:12.446Z,78.90
2022-12-15T11:56:31.047Z,82.80
2022-12-15T11:59:50.025Z,72.35
2022-12-15T12:03:24.874Z,77.35
2022-12-15T12:06:35.835Z,78.13
2022-12-15T12:10:01.525Z,74.07
2022-12-15T12:13:45.812Z,71.57
2022-12-15T12:17:06.578Z,80.90
2022-12-15T12:20:40.644Z,74.53
2022-12-15T12:24:18.373Z,62.92
2022-12-15T12:27:59.084Z,75.60
2022-12-15T12:37:40.283Z,76.20
2022-12-15T12:43:58.885Z,72.10
2022-12-15T12:46:59.336Z,83.53
2022-12-15T12:57:55.604Z,79.03
2022-12-15T13:01:44.960Z,81.07
2022-12-15T13:05:21.524Z,77.43
2022-12-15T13:12:27.575Z,75.07
2022-12-15T13:15:37.218Z,75.50
2022-12-15T13:18:42.222Z,75.97
2022-12-15T13:21:42.663Z,74.68
2022-12-15T13:24:39.574Z,74.32
2022-12-15T13:28:05.329Z,67.93
2022-12-15T13:31:53.065Z,64.63
2022-12-15T13:35:01.869Z,60.80
2022-12-15T13:38:19.607Z,57.90
2022-12-15T13:42:23.678Z,67.78
2022-12-15T13:45:28.674Z,61.67
2022-12-15T13:54:28.393Z,71.97
2022-12-15T13:57:51.826Z,61.75
2022-12-15T14:00:59.153Z,66.82
2022-12-15T14:04:17.159Z,66.68
2022-12-15T14:07:10.615Z,65.20
2022-12-15T14:10:05.086Z,65.70
2022-12-15T14:13:15.510Z,63.05
2022-12-15T14:16:19.090Z,64.10
2022-12-15T14:19:26.568Z,68.07
2022-12-15T14:22:36.034Z,68.45
2022-12-15T14:25:33.671Z,71.75
2022-12-15T14:28:41.180Z,70.78
2022-12-15T14:31:37.707Z,76.10
2022-12-15T14:35:00.222Z,80.30
2022-12-15T14:37:48.656Z,83.50
2022-12-15T14:40:40.067Z,81.80
2022-12-15T14:43:37.257Z,82.47
2022-12-15T14:46:27.814Z,83.72
2022-12-15T14:49:37.346Z,82.75
2022-12-15T14:52:41.683Z,84.72
2022-12-15T14:55:39.627Z,84.93
2022-12-15T14:58:38.639Z,87.53
2022-12-15T15:01:45.423Z,92.55
2022-12-15T15:04:41.648Z,86.70
2022-12-15T15:07:36.149Z,87.35
2022-12-15T15:10:39.788Z,90.10
2022-12-15T15:13:41.616Z,91.25
2022-12-15T15:16:53.231Z,90.85
2022-12-15T15:20:26.948Z,104.75
2022-12-15T15:26:03.313Z,97.45
2022-12-15T15:29:34.232Z,96.75
2022-12-15T15:32:25.847Z,99.88
2022-12-15T15:35:21.859Z,98.20
2022-12-15T15:38:38.845Z,99.70
2022-12-15T15:41:46.187Z,101.05
2022-12-15T15:44:34.327Z,92.25
2022-12-15T15:47:30.678Z,94.68
2022-12-15T15:50:27.239Z,95.97
2022-12-15T15:53:23.366Z,90.97
2022-12-15T15:56:32.253Z,93.38
2022-12-15T15:59:33.210Z,95.20
2022-12-15T16:02:38.894Z,94.13
2022-12-15T16:05:35.739Z,92.53
2022-12-15T16:08:35.249Z,92.07
2022-12-15T16:11:55.612Z,99.80
2022-12-15T16:14:58.678Z,95.80
2022-12-15T16:18:27.581Z,99.75
2022-12-15T16:21:26.520Z,95.45
2022-12-15T16:24:40.943Z,95.25
2022-12-15T16:27:29.600Z,87.88
2022-12-15T16:30:50.707Z,84.53
2022-12-15T16:33:52.104Z,90.68
2022-12-15T16:36:45.641Z,85.78
2022-12-15T16:42:35.180Z,87.88
2022-12-15T16:45:28.820Z,78.18
2022-12-15T16:51:34.952Z,73.37
2022-12-15T16:54:36.436Z,78.13
2022-12-15T16:57:44.625Z,77.45
2022-12-15T17:00:35.732Z,74.95
2022-12-15T17:03:30.697Z,77.15
2022-12-15T17:06:29.555Z,82.32
2022-12-15T17:09:24.208Z,82.78
2022-12-15T17:12:18.289Z,76.43
2022-12-15T17:15:25.441Z,80.47
2022-12-15T17:18:15.015Z,80.32
2022-12-15T17:21:12.637Z,84.32
2022-12-15T17:24:08.305Z,79.70
2022-12-15T17:26:56.438Z,80.07
2022-12-15T17:29:44.770Z,82.75
2022-12-15T17:32:32.628Z,83.57
2022-12-15T17:35:21.536Z,77.25
2022-12-15T17:38:18.347Z,83.40
2022-12-15T17:41:15.519Z,76.95
2022-12-15T17:44:36.263Z,78.93
2022-12-15T17:47:25.581Z,79.63
2022-12-15T17:50:23.370Z,80.85
2022-12-15T17:53:13.781Z,82.75
2022-12-15T17:56:04.656Z,84.28
2022-12-15T17:58:58.151Z,85.10
2022-12-15T18:02:00.293Z,84.75
2022-12-15T18:05:00.211Z,83.78
2022-12-15T18:07:58.381Z,79.32
2022-12-15T18:10:49.292Z,76.03
2022-12-15T18:13:49.283Z,77.28
2022-12-15T18:16:39.533Z,78.50
2022-12-15T18:19:35.134Z,75.68
2022-12-15T18:22:27.851Z,75.63
2022-12-15T18:25:31.611Z,72.05
2022-12-15T18:28:37.583Z,76.85
2022-12-15T18:31:30.451Z,78.60
2022-12-15T18:34:24.162Z,73.05
2022-12-15T18:37:32.303Z,74.53
2022-12-15T18:40:25.315Z,71.50
2022-12-15T18:43:22.684Z,66.05
2022-12-15T18:46:16.320Z,71.43
2022-12-15T18:52:00.116Z,69.63
2022-12-15T18:54:49.904Z,79.22
2022-12-15T18:57:38.022Z,74.45
2022-12-15T19:00:28.779Z,73.57
2022-12-15T19:03:20.116Z,70.28
2022-12-15T19:06:26.065Z,71.35
2022-12-15T19:09:23.268Z,64.13
2022-12-15T19:12:18.286Z,69.00
2022-12-15T19:15:21.261Z,66.10
2022-12-15T19:18:34.489Z,66.07
2022-12-15T19:21:44.393Z,67.47
2022-12-15T19:24:51.229Z,71.38
2022-12-15T19:27:39.235Z,76.15
2022-12-15T19:30:38.620Z,71.97
2022-12-15T19:33:30.060Z,74.53
2022-12-15T19:36:23.683Z,74.68
2022-12-15T19:39:22.471Z,70.13
2022-12-15T19:42:30.003Z,69.45
2022-12-15T19:45:23.457Z,62.95
2022-12-15T19:48:18.698Z,66.30
2022-12-15T19:51:19.821Z,62.60
2022-12-15T19:54:17.766Z,66.15
2022-12-15T20:01:45.550Z,64.43
2022-12-15T20:04:34.449Z,67.68
2022-12-15T20:07:32.221Z,66.50
2022-12-15T20:10:32.514Z,67.38
2022-12-15T20:13:29.730Z,56.97
2022-12-15T20:16:19.617Z,59.17
2022-12-15T20:19:12.154Z,61.00
2022-12-15T20:22:17.135Z,62.22
2022-12-15T20:25:09.040Z,56.28
2022-12-15T20:28:00.824Z,58.35
2022-12-15T20:30:50.644Z,56.25
2022-12-15T20:33:39.261Z,51.25
2022-12-15T20:36:50.497Z,46.00
2022-12-15T20:39:40.278Z,47.78
2022-12-15T20:42:45.337Z,52.17
2022-12-15T20:45:57.849Z,49.95
2022-12-15T20:48:48.762Z,48.13
2022-12-15T20:51:39.710Z,44.53
2022-12-15T20:54:36.899Z,45.03
2022-12-15T20:57:25.764Z,47.85
2022-12-15T21:03:50.439Z,42.58
2022-12-15T21:06:54.627Z,41.83
2022-12-15T21:10:10.528Z,39.58
2022-12-15T21:13:10.459Z,43.08
2022-12-15T21:15:58.564Z,38.75
2022-12-15T21:19:22.296Z,46.78
2022-12-15T21:22:36.033Z,42.35
2022-12-15T21:25:38.002Z,44.53
2022-12-15T21:32:58.023Z,45.25
2022-12-15T21:35:52.034Z,46.22
2022-12-15T21:38:56.633Z,42.80
2022-12-15T21:41:51.196Z,45.33
2022-12-15T21:44:39.936Z,40.63
2022-12-15T21:47:52.280Z,36.25
2022-12-15T21:50:47.788Z,40.25
2022-12-15T21:53:35.943Z,44.00
2022-12-15T21:56:38.804Z,37.13
2022-12-15T21:59:33.542Z,33.72
2022-12-15T22:02:27.841Z,40.83
2022-12-15T22:05:33.363Z,35.83
2022-12-15T22:08:57.064Z,34.60
2022-12-15T22:11:57.122Z,33.20
2022-12-15T22:14:48.446Z,34.05
2022-12-15T22:18:28.151Z,35.60
2022-12-15T22:25:02.682Z,40.58
2022-12-15T22:28:00.870Z,37.17
2022-12-15T22:30:58.453Z,38.22
2022-12-15T22:33:46.747Z,43.30
2022-12-15T22:36:36.013Z,35.72
2022-12-15T22:39:25.314Z,34.92
2022-12-15T22:42:19.772Z,36.15
2022-12-15T22:45:20.748Z,36.55
2022-12-15T22:48:19.710Z,33.92
2022-12-15T22:51:08.466Z,35.22
2022-12-15T22:53:58.098Z,38.05
2022-12-15T22:57:10.754Z,36.05
2022-12-15T23:00:23.258Z,41.00
2022-12-15T23:03:14.353Z,33.80
2022-12-15T23:06:03.585Z,36.67
2022-12-15T23:08:55.926Z,37.83
2022-12-15T23:11:44.778Z,33.37
2022-12-15T23:14:51.146Z,37.95
2022-12-15T23:17:40.099Z,35.50
2022-12-15T23:20:28.617Z,34.08
2022-12-15T23:23:17.527Z,36.22
2022-12-15T23:26:08.410Z,38.30
2022-12-15T23:28:56.635Z,37.38
2022-12-15T23:31:50.599Z,36.83
2022-12-15T23:34:45.856Z,36.03
2022-12-15T23:37:35.414Z,37.45
2022-12-15T23:40:23.416Z,31.85
2022-12-15T23:43:17.506Z,35.50
2022-12-15T23:46:13.256Z,35.78
2022-12-15T23:49:02.102Z,32.40
2022-12-15T23:52:01.324Z,32.67
2022-12-15T23:54:55.331Z,30.13
2022-12-15T23:57:48.092Z,30.25
